Arthur, West Virginia
Current Conditions -  °F | °C
As of 7:35 AM on Friday 19 Dec 2014 (Local Time) from KW99 Reporting Station
Overcast Overcast  
Wind Chill: 28°   Ceiling: 3500
Heat Index: 28°   Visibility: 10mi
Dew Point: 22°   Wind: 0mph
Humidity: 77%   Direction: NA
Pressure: 30.19"   Gusts: NA
Location:  38.9337°N, 79.1435°W
Report Text: KW99 191235Z AUTO 00000KT 10SM OVC035 M02/M05 A3019 RMK AO2 T10201055
Loading
Personal Weather Stations






























Interactive Weather Map New forecast layout! Learn more

10-Day Weather Forecast

Advertisements
Track Severe Weather on mobile